This is the latest recevied weather packets stored in our database for station/object N8WJW. If no packets are shown the sender has not sent any weather packets the latest 1 day(s).
| Time | Temp. | Humidity | Pressure | Rain* | Wind** | Luminosity | Snow |
|---|---|---|---|---|---|---|---|
| 1778000815 | 16.11° C | 77% | 1008.8 hPa | 0 mm | 1.34 m/s, 218° | 103 W/m² | - |
| 1778000512 | 16.11° C | 76% | 1008.9 hPa | 0 mm | 1.79 m/s, 262° | 86 W/m² | - |
| 1778000212 | 16.11° C | 76% | 1008.9 hPa | 0 mm | 0.45 m/s, 206° | 71 W/m² | - |
| 1777999908 | 16.67° C | 75% | 1008.7 hPa | 0 mm | 0.89 m/s, 264° | 61 W/m² | - |
| 1777999604 | 17.22° C | 72% | 1008.7 hPa | 0 mm | 1.34 m/s, 278° | 45 W/m² | - |
| 1777999302 | 17.78° C | 69% | 1008.5 hPa | 0 mm | 0 m/s | 78 W/m² | - |
| 1777999000 | 18.89° C | 68% | 1008.6 hPa | 0 mm | 0.89 m/s, 196° | 54 W/m² | - |
| 1777998698 | 18.89° C | 64% | 1008.2 hPa | 0 mm | 1.79 m/s, 241° | 63 W/m² | - |
| 1777998395 | 20° C | 63% | 1008.2 hPa | 0 mm | 1.34 m/s, 256° | 76 W/m² | - |
| 1777998092 | 20° C | 65% | 1008 hPa | 0 mm | 1.34 m/s, 209° | 301 W/m² | - |
| 1777997789 | 20° C | 62% | 1008.2 hPa | 0 mm | 2.68 m/s, 215° | 221 W/m² | - |
| 1777997486 | 20.56° C | 62% | 1008 hPa | 0 mm | 1.79 m/s, 137° | 655 W/m² | - |
| 1777997184 | 20° C | 63% | 1008.2 hPa | 0 mm | 0.89 m/s, 313° | 228 W/m² | - |
| 1777996881 | 20° C | 61% | 1008.2 hPa | 0 mm | 0 m/s | 273 W/m² | - |
| 1777996577 | 20° C | 64% | 1007.9 hPa | 0 mm | 1.79 m/s, 182° | 212 W/m² | - |
| 1777996274 | 20° C | 64% | 1008.1 hPa | 0 mm | 1.79 m/s, 171° | 487 W/m² | - |
| 1777995970 | 19.44° C | 66% | 1008 hPa | 0 mm | 3.13 m/s, 260° | 354 W/m² | - |
| 1777995666 | 19.44° C | 66% | 1007.9 hPa | 0 mm | 1.79 m/s, 200° | 523 W/m² | - |
| 1777995363 | 19.44° C | 64% | 1007.7 hPa | 0 mm | 0.89 m/s, 176° | 334 W/m² | - |
| 1777995061 | 18.89° C | 66% | 1007.7 hPa | 0 mm | 2.24 m/s, 235° | 432 W/m² | - |
| 1777994757 | 18.89° C | 66% | 1007.4 hPa | 0 mm | 2.24 m/s, 199° | 288 W/m² | - |
| 1777994453 | 18.89° C | 67% | 1007.7 hPa | 0 mm | 3.13 m/s, 230° | 212 W/m² | - |
| 1777994148 | 18.89° C | 68% | 1007.5 hPa | 0 mm | 1.34 m/s, 200° | 240 W/m² | - |
| 1777993846 | 18.33° C | 69% | 1007.9 hPa | 0 mm | 1.34 m/s, 178° | 283 W/m² | - |
| 1777993542 | 17.78° C | 71% | 1008.1 hPa | 0 mm | 2.68 m/s, 188° | 163 W/m² | - |
* Rain latest hour (hover to see other rain measurements)
** Current wind speed in m/s (hover to see current wind gust speed)